Time;durP1;ratioP1;P1;durP2;ratioP2;P2;SDS_P1;SDS_P2;PMS_P1;PMS_P2;Temp;Humidity;BMP_temperature;BMP_pressure;BME280_temperature;BME280_humidity;BME280_pressure;Samples;Min_cycle;Max_cycle;Signal;HPM_P1;HPM_P2
2021/01/13 00:02:09;;;;;;;11.05;1.05;;;;;;;1.56;51.99;101039.41;5033720;28;20026;-71
2021/01/13 00:04:36;;;;;;;8.93;0.40;;;;;;;1.78;51.43;101041.13;5018423;28;20033;-71
2021/01/13 00:07:02;;;;;;;6.65;0.52;;;;;;;1.50;52.32;101035.94;5021591;28;20091;-71
2021/01/13 00:09:28;;;;;;;12.15;1.70;;;;;;;1.80;51.63;101034.25;5024961;28;20071;-71
2021/01/13 00:11:57;;;;;;;11.60;0.55;;;;;;;1.87;51.27;101029.94;5020972;28;20061;-71
2021/01/13 00:14:26;;;;;;;2.15;0.57;;;;;;;1.36;52.55;101023.91;5026519;28;20036;-71
2021/01/13 00:16:53;;;;;;;8.70;0.70;;;;;;;1.75;51.34;101030.78;5021969;28;21293;-71
2021/01/13 00:19:22;;;;;;;8.68;0.90;;;;;;;1.61;51.90;101032.53;5020351;28;20056;-71
2021/01/13 00:21:52;;;;;;;5.03;0.47;;;;;;;1.78;51.34;101027.38;5026736;28;20044;-71
2021/01/13 00:24:18;;;;;;;18.50;1.98;;;;;;;1.70;51.50;101023.06;5038756;28;20036;-71
2021/01/13 00:26:43;;;;;;;3.63;0.50;;;;;;;1.52;51.67;101018.78;5021270;28;20030;-70
2021/01/13 00:29:11;;;;;;;8.23;0.70;;;;;;;1.62;51.46;101019.66;5021398;28;20102;-71
2021/01/13 00:31:37;;;;;;;4.78;1.02;;;;;;;1.42;51.85;101027.38;5018859;28;20243;-71
2021/01/13 00:34:04;;;;;;;15.60;1.45;;;;;;;1.31;52.55;101023.91;5023947;28;20510;-71
2021/01/13 00:36:30;;;;;;;16.55;1.23;;;;;;;1.15;52.86;101017.88;5020049;28;20514;-71
2021/01/13 00:38:55;;;;;;;20.85;0.70;;;;;;;1.40;52.22;101023.94;5023232;28;20041;-71
2021/01/13 00:41:21;;;;;;;11.10;1.52;;;;;;;1.02;53.44;101016.16;5014073;28;20031;-71
2021/01/13 00:43:50;;;;;;;6.13;0.90;;;;;;;1.54;52.10;101021.34;5017785;28;20052;-70
2021/01/13 00:46:16;;;;;;;7.10;0.50;;;;;;;1.29;52.30;101017.91;5022463;28;20055;-70
2021/01/13 00:48:41;;;;;;;9.70;0.57;;;;;;;1.37;52.16;101010.16;5023933;28;20029;-70
2021/01/13 00:51:06;;;;;;;6.82;0.65;;;;;;;1.30;52.06;101006.72;5003191;28;20088;-71
2021/01/13 00:53:32;;;;;;;3.72;0.43;;;;;;;1.53;51.20;101006.78;5023476;28;20038;-71
2021/01/13 00:55:58;;;;;;;4.22;0.40;;;;;;;1.81;50.53;100997.28;5026155;28;20056;-71
2021/01/13 00:58:23;;;;;;;10.00;0.47;;;;;;;1.76;51.00;101001.59;5016517;28;20044;-71
2021/01/13 01:00:50;;;;;;;9.98;0.70;;;;;;;2.19;49.91;100987.75;5006025;28;20036;-71
2021/01/13 01:03:17;;;;;;;13.05;1.15;;;;;;;2.14;49.90;101000.66;5019941;28;20041;-70
2021/01/13 01:05:42;;;;;;;12.18;0.60;;;;;;;2.34;49.40;101009.19;5009496;28;20084;-71
2021/01/13 01:08:08;;;;;;;5.35;0.93;;;;;;;2.10;50.16;101006.69;5026181;28;20438;-71
2021/01/13 01:10:34;;;;;;;10.98;1.95;;;;;;;1.79;50.87;100995.56;5020298;28;20040;-71
2021/01/13 01:12:59;;;;;;;14.50;0.55;;;;;;;1.90;51.25;100986.94;5017542;28;20076;-70
2021/01/13 01:15:25;;;;;;;8.63;0.73;;;;;;;1.86;51.60;100998.16;5034827;28;20155;-71
2021/01/13 01:17:51;;;;;;;2.92;0.43;;;;;;;1.92;51.63;101002.44;5012513;28;20484;-71
2021/01/13 01:20:18;;;;;;;8.43;0.47;;;;;;;1.84;51.28;100989.56;5017651;28;20030;-71
2021/01/13 01:22:49;;;;;;;8.18;0.90;;;;;;;1.61;52.07;100999.03;5006426;28;20037;-71
2021/01/13 01:25:15;;;;;;;3.67;0.52;;;;;;;1.98;50.76;100988.69;5002527;28;20021;-71
2021/01/13 01:27:40;;;;;;;2.63;0.25;;;;;;;2.09;50.15;100998.09;5017613;28;20458;-71
2021/01/13 01:30:06;;;;;;;3.92;0.22;;;;;;;1.80;50.34;100989.56;5020905;28;20061;-71
2021/01/13 01:32:32;;;;;;;3.95;0.28;;;;;;;1.37;51.16;100999.84;5021183;28;20105;-71
2021/01/13 01:34:57;;;;;;;3.17;0.20;;;;;;;1.77;50.32;100998.16;5023247;28;20209;-71
2021/01/13 01:37:23;;;;;;;7.93;0.40;;;;;;;1.59;50.59;100990.44;5014725;28;20057;-71
2021/01/13 01:39:48;;;;;;;7.38;0.38;;;;;;;1.50;51.09;100999.03;5033146;28;20037;-71
2021/01/13 01:42:17;;;;;;;5.63;0.20;;;;;;;1.43;51.33;101000.75;5017299;28;20419;-71
2021/01/13 01:44:42;;;;;;;2.67;0.20;;;;;;;1.86;50.21;101008.47;5022320;28;20693;-71
2021/01/13 01:47:09;;;;;;;4.25;0.30;;;;;;;1.88;49.89;101003.28;5018213;28;20030;-71
2021/01/13 01:49:38;;;;;;;9.80;0.85;;;;;;;1.33;51.68;101001.59;5034856;28;20217;-71
2021/01/13 01:52:06;;;;;;;8.57;0.40;;;;;;;1.40;51.88;100995.59;5019032;28;20047;-71
2021/01/13 01:54:34;;;;;;;4.05;0.35;;;;;;;1.73;51.02;100993.88;5020334;28;20037;-71
2021/01/13 01:57:02;;;;;;;5.90;0.40;;;;;;;1.09;52.74;100989.53;5022789;28;20112;-71
2021/01/13 01:59:42;;;;;;;8.40;0.70;;;;;;;1.64;51.62;100987.00;5020475;28;20490;-71
2021/01/13 02:02:09;;;;;;;5.05;0.20;;;;;;;1.27;52.45;100992.13;5019358;28;20030;-71
2021/01/13 02:04:37;;;;;;;8.02;0.70;;;;;;;1.32;52.64;100979.25;5018485;28;20095;-71
2021/01/13 02:07:09;;;;;;;3.72;0.20;;;;;;;1.44;52.82;100984.44;5019299;28;20080;-71
2021/01/13 02:09:35;;;;;;;9.95;0.40;;;;;;;1.66;52.15;100984.41;5020992;28;20033;-71
2021/01/13 02:12:09;;;;;;;10.05;0.35;;;;;;;2.22;51.07;100991.19;5033180;28;20155;-71
2021/01/13 02:14:34;;;;;;;19.63;0.63;;;;;;;2.23;51.44;101023.84;5034692;28;20040;-71
2021/01/13 02:17:04;;;;;;;7.05;0.82;;;;;;;1.92;52.86;101038.50;5040599;28;20654;-71
2021/01/13 02:19:47;;;;;;;7.50;0.20;;;;;;;1.32;53.88;101026.47;5039145;28;20025;-71
2021/01/13 02:25:12;;;;;;;2.40;0.40;;;;;;;1.48;53.83;101021.34;5020658;28;20030;-70
2021/01/13 02:28:03;;;;;;;13.07;0.70;;;;;;;1.18;54.45;101023.03;5021009;28;20626;-71
2021/01/13 02:30:37;;;;;;;0.95;0.20;;;;;;;1.05;54.53;101008.41;5027526;28;20033;-71
2021/01/13 02:33:09;;;;;;;8.25;0.45;;;;;;;1.45;53.42;100998.19;5025608;28;20037;-71
2021/01/13 02:36:10;;;;;;;3.00;0.20;;;;;;;1.87;52.07;101004.16;5035290;28;20112;-71
2021/01/13 02:38:37;;;;;;;0.77;0.17;;;;;;;1.37;52.59;100992.13;5004344;28;20060;-71
2021/01/13 02:41:12;;;;;;;0.30;0.10;;;;;;;1.63;52.12;100987.00;5024949;28;20071;-71
2021/01/13 02:43:55;;;;;;;4.00;0.20;;;;;;;2.02;50.43;100993.81;5031973;28;20026;-71
2021/01/13 02:46:42;;;;;;;1.45;0.03;;;;;;;2.25;49.79;101003.22;5015137;28;20510;-71
2021/01/13 02:49:12;;;;;;;3.25;0.10;;;;;;;2.17;50.05;101003.22;5017051;28;20034;-71
2021/01/13 02:51:40;;;;;;;2.70;0.10;;;;;;;2.55;49.01;101016.00;5033395;28;20033;-71
2021/01/13 02:54:24;;;;;;;1.52;0.00;;;;;;;2.33;49.58;101007.47;5022802;28;20526;-71
2021/01/13 02:57:04;;;;;;;0.20;0.10;;;;;;;2.56;49.38;100991.03;5000334;28;20063;-71
2021/01/13 02:59:34;;;;;;;3.47;0.10;;;;;;;1.96;50.72;100995.56;5019256;28;20034;-71
2021/01/13 03:02:08;;;;;;;2.80;0.10;;;;;;;2.36;50.41;100996.28;5020946;28;20041;-70
2021/01/13 03:04:34;;;;;;;0.88;0.10;;;;;;;2.30;50.42;100984.25;5017192;28;20030;-70
2021/01/13 03:07:04;;;;;;;2.63;0.73;;;;;;;2.27;50.34;100978.28;5027839;28;20060;-71
2021/01/13 03:09:35;;;;;;;5.05;0.45;;;;;;;1.97;51.53;100974.06;5018355;28;20026;-71
2021/01/13 03:12:03;;;;;;;7.45;0.30;;;;;;;2.09;51.05;100980.03;5021807;28;20641;-70
2021/01/13 03:14:34;;;;;;;6.72;0.20;;;;;;;1.76;51.73;100980.13;5021724;28;20401;-70
2021/01/13 03:17:09;;;;;;;3.63;0.10;;;;;;;1.74;51.84;100977.53;5017866;28;20116;-71
2021/01/13 03:19:54;;;;;;;2.45;0.20;;;;;;;1.66;52.45;100976.69;5019342;28;20147;-71
2021/01/13 03:22:28;;;;;;;6.15;0.40;;;;;;;1.55;52.73;100976.72;5020142;28;20037;-71
2021/01/13 03:25:00;;;;;;;6.82;0.50;;;;;;;1.42;53.31;100975.88;5021652;28;20030;-71
2021/01/13 03:27:31;;;;;;;5.78;0.40;;;;;;;1.45;53.15;100975.84;5001886;28;20037;-71
2021/01/13 03:29:58;;;;;;;2.22;0.10;;;;;;;1.61;53.20;100970.69;5014067;28;20033;-71
2021/01/13 03:32:41;;;;;;;6.13;0.28;;;;;;;1.77;52.99;100976.69;5020125;28;20030;-71
2021/01/13 03:35:13;;;;;;;3.83;0.32;;;;;;;1.54;53.53;100979.28;5023531;28;20083;-71
2021/01/13 03:37:58;;;;;;;5.97;0.68;;;;;;;1.69;52.94;100974.13;5021680;28;20562;-71
2021/01/13 03:40:28;;;;;;;6.40;0.32;;;;;;;1.49;53.52;100976.72;5025329;28;20117;-70
2021/01/13 03:42:57;;;;;;;7.65;0.20;;;;;;;1.03;54.85;100977.50;5032615;28;20416;-71
2021/01/13 03:45:36;;;;;;;5.55;0.40;;;;;;;0.85;55.15;100970.63;5024973;28;20075;-70
2021/01/13 03:48:29;;;;;;;3.67;0.25;;;;;;;0.91;55.17;100967.22;5011612;28;20484;-71
2021/01/13 03:50:56;;;;;;;5.25;0.55;;;;;;;1.02;54.19;100969.81;5020120;28;20042;-71
2021/01/13 03:53:26;;;;;;;1.98;0.57;;;;;;;1.17;54.77;100976.66;5008221;28;20037;-72
2021/01/13 03:55:54;;;;;;;4.20;0.32;;;;;;;1.08;55.01;100970.69;5026890;28;20038;-70
2021/01/13 03:58:47;;;;;;;2.97;0.30;;;;;;;1.12;55.19;100971.53;5014248;28;20034;-72
2021/01/13 04:01:22;;;;;;;14.30;1.50;;;;;;;1.05;55.50;100965.50;5018427;28;20033;-70
2021/01/13 04:04:08;;;;;;;5.75;0.20;;;;;;;1.19;54.93;100957.78;5017204;28;20395;-72
2021/01/13 04:06:42;;;;;;;5.95;1.10;;;;;;;1.37;54.50;100962.06;5026231;28;20040;-70
2021/01/13 04:09:15;;;;;;;5.03;0.30;;;;;;;1.29;54.87;100948.38;5015647;28;20045;-71
2021/01/13 04:11:44;;;;;;;2.72;1.23;;;;;;;1.17;55.29;100953.50;5020865;28;20042;-70
2021/01/13 04:14:10;;;;;;;5.50;0.63;;;;;;;1.64;53.93;100950.94;5015428;28;20025;-70
2021/01/13 04:16:39;;;;;;;3.25;0.50;;;;;;;1.82;53.67;100954.31;5012611;28;20531;-70
2021/01/13 04:19:06;;;;;;;7.45;0.50;;;;;;;1.80;53.19;100961.22;5022937;28;20029;-72
2021/01/13 04:21:32;;;;;;;9.23;0.38;;;;;;;1.67;54.11;100961.22;5000547;28;20491;-70
2021/01/13 04:24:00;;;;;;;11.75;1.45;;;;;;;1.71;53.84;100962.09;5019546;28;20113;-70
2021/01/13 04:26:29;;;;;;;9.40;0.28;;;;;;;1.72;53.81;100968.97;5019868;28;20426;-70
2021/01/13 04:28:55;;;;;;;7.22;0.60;;;;;;;1.40;53.96;100959.56;5019209;28;20026;-70
2021/01/13 04:31:22;;;;;;;1.27;0.40;;;;;;;1.60;53.71;100971.56;5010518;28;20063;-71
2021/01/13 04:33:47;;;;;;;4.68;0.35;;;;;;;1.14;54.63;100968.97;5013989;28;20060;-70
2021/01/13 04:36:14;;;;;;;10.23;0.70;;;;;;;1.35;53.74;100950.94;5022677;28;20037;-72
2021/01/13 04:38:39;;;;;;;8.57;0.47;;;;;;;1.22;54.69;100962.09;5016467;28;20061;-72
2021/01/13 04:41:13;;;;;;;8.07;0.28;;;;;;;1.58;53.64;100955.25;5015602;28;20073;-70
2021/01/13 04:43:44;;;;;;;5.70;0.50;;;;;;;1.42;53.77;100957.84;5002324;28;20068;-72
2021/01/13 04:46:34;;;;;;;1.50;0.10;;;;;;;1.19;54.37;100954.34;5007361;28;20037;-71
2021/01/13 04:49:12;;;;;;;7.20;0.68;;;;;;;1.49;53.35;100951.81;5016206;28;20391;-71
2021/01/13 04:51:39;;;;;;;2.50;0.10;;;;;;;1.62;53.09;100962.13;5017277;28;20079;-70
2021/01/13 04:54:16;;;;;;;6.40;0.30;;;;;;;1.46;53.82;100951.81;5023629;28;20651;-72
2021/01/13 04:56:44;;;;;;;4.55;0.22;;;;;;;1.47;53.84;100945.81;5014556;28;20527;-70
2021/01/13 04:59:31;;;;;;;2.42;0.63;;;;;;;0.99;54.99;100946.63;5010327;28;20083;-71
2021/01/13 05:02:05;;;;;;;11.05;0.22;;;;;;;1.06;54.72;100940.63;5013052;28;20034;-70
2021/01/13 05:04:46;;;;;;;3.10;0.20;;;;;;;1.30;54.41;100947.50;5007080;28;20122;-70
2021/01/13 05:07:40;;;;;;;7.82;0.30;;;;;;;1.32;54.00;100949.19;5022557;28;20033;-70
2021/01/13 05:10:16;;;;;;;1.95;0.10;;;;;;;1.14;54.06;100943.22;5024380;28;20041;-70
2021/01/13 05:12:54;;;;;;;6.00;0.22;;;;;;;1.35;53.88;100950.94;5022469;28;20022;-71
2021/01/13 05:15:31;;;;;;;3.30;0.30;;;;;;;1.20;54.38;100938.06;5023456;28;20642;-71
2021/01/13 05:18:06;;;;;;;5.57;0.38;;;;;;;1.27;54.12;100942.34;5039383;28;20097;-71
2021/01/13 05:20:34;;;;;;;2.65;0.30;;;;;;;1.09;54.59;100948.38;5023305;28;20029;-71
2021/01/13 05:23:00;;;;;;;3.10;0.30;;;;;;;1.44;53.44;100939.78;5011404;28;20033;-71
2021/01/13 05:25:41;;;;;;;7.38;0.30;;;;;;;1.28;53.63;100931.19;5007488;28;20554;-71
2021/01/13 05:28:08;;;;;;;5.93;0.20;;;;;;;1.37;53.64;100928.59;5025374;28;20087;-71
2021/01/13 05:30:39;;;;;;;6.57;0.30;;;;;;;1.35;53.74;100932.91;5021628;28;20048;-71
2021/01/13 05:33:10;;;;;;;2.60;0.30;;;;;;;1.24;54.03;100930.34;5016276;28;20037;-71
2021/01/13 05:35:39;;;;;;;5.88;0.73;;;;;;;1.43;53.51;100930.34;5014934;28;20046;-71
2021/01/13 05:38:08;;;;;;;5.80;0.15;;;;;;;1.16;54.03;100932.06;5023438;28;20057;-71
2021/01/13 05:40:40;;;;;;;3.10;0.52;;;;;;;1.10;54.49;100939.75;5020478;28;20048;-71
2021/01/13 05:43:07;;;;;;;3.40;0.30;;;;;;;1.25;54.12;100937.19;5022975;28;20120;-71
2021/01/13 05:45:36;;;;;;;6.85;0.30;;;;;;;1.03;54.87;100935.47;5019066;28;20573;-71
2021/01/13 05:48:06;;;;;;;8.77;0.25;;;;;;;1.50;53.70;100937.22;5007986;28;20033;-71
2021/01/13 05:50:32;;;;;;;8.93;0.32;;;;;;;1.23;54.65;100933.75;5015247;28;20038;-71
2021/01/13 05:52:57;;;;;;;4.75;0.30;;;;;;;1.21;54.94;100939.78;5016525;28;20115;-71
2021/01/13 05:55:23;;;;;;;3.97;0.32;;;;;;;1.02;55.61;100941.50;5019147;28;20121;-71
2021/01/13 05:58:00;;;;;;;8.48;1.00;;;;;;;1.52;53.96;100935.50;5016650;28;20072;-71
2021/01/13 06:00:29;;;;;;;15.85;0.85;;;;;;;1.28;54.94;100936.34;5022368;28;20032;-71
2021/01/13 06:02:59;;;;;;;17.40;0.90;;;;;;;1.04;55.52;100932.91;5015580;28;20068;-71
2021/01/13 06:05:27;;;;;;;4.78;0.63;;;;;;;1.11;55.37;100939.78;5019064;28;20525;-70
2021/01/13 06:07:55;;;;;;;3.42;0.22;;;;;;;0.49;56.95;100933.66;5021807;28;20511;-71
2021/01/13 06:10:23;;;;;;;8.73;0.95;;;;;;;1.09;55.50;100932.91;5018473;28;20030;-71
2021/01/13 06:12:52;;;;;;;12.00;0.45;;;;;;;1.01;55.29;100925.16;5020436;28;20073;-71
2021/01/13 06:15:24;;;;;;;6.75;0.60;;;;;;;1.19;54.92;100926.03;4998198;28;20061;-71
2021/01/13 06:17:52;;;;;;;9.50;0.40;;;;;;;1.18;54.59;100930.34;5013902;28;20128;-70
2021/01/13 06:20:28;;;;;;;6.20;0.88;;;;;;;0.78;55.66;100924.31;5018952;28;20040;-71
2021/01/13 06:22:56;;;;;;;11.52;0.43;;;;;;;0.92;55.55;100927.75;5013791;28;20664;-70
2021/01/13 06:25:26;;;;;;;7.57;0.22;;;;;;;1.40;53.88;100936.38;5014717;28;20042;-71
2021/01/13 06:27:58;;;;;;;4.95;0.38;;;;;;;0.96;55.17;100924.31;5017697;28;20033;-71
2021/01/13 06:30:27;;;;;;;6.82;0.50;;;;;;;0.68;56.14;100916.59;5016397;28;20026;-71
2021/01/13 06:33:03;;;;;;;7.50;0.60;;;;;;;0.71;55.83;100922.59;5019491;28;20041;-71
2021/01/13 06:35:35;;;;;;;12.00;0.55;;;;;;;0.98;55.23;100922.59;5021317;28;20034;-71
2021/01/13 06:38:04;;;;;;;5.82;0.20;;;;;;;1.30;54.38;100929.47;5022272;28;20076;-70
2021/01/13 06:40:30;;;;;;;4.53;0.30;;;;;;;1.02;54.87;100921.75;5035184;28;20041;-71
2021/01/13 06:42:55;;;;;;;9.23;0.70;;;;;;;0.95;55.49;100925.19;5019120;28;20255;-71
2021/01/13 06:45:31;;;;;;;10.45;0.95;;;;;;;0.70;55.98;100924.28;5017348;28;20032;-71
2021/01/13 06:47:57;;;;;;;4.97;0.55;;;;;;;1.52;53.83;100915.72;5006092;28;20059;-71
2021/01/13 06:50:38;;;;;;;4.45;0.30;;;;;;;1.50;53.72;100922.59;5014786;28;20395;-71
2021/01/13 06:53:11;;;;;;;6.35;2.22;;;;;;;1.06;54.83;100915.75;5001416;28;20039;-71
2021/01/13 06:55:41;;;;;;;7.95;0.40;;;;;;;1.34;53.97;100915.72;5019012;28;20029;-71
2021/01/13 06:58:14;;;;;;;6.05;0.45;;;;;;;1.58;53.01;100922.59;5014713;28;20052;-70
2021/01/13 07:00:41;;;;;;;16.02;1.02;;;;;;;1.48;53.58;100924.34;5022797;28;20083;-72
2021/01/13 07:03:29;;;;;;;11.88;0.88;;;;;;;1.22;54.23;100921.75;5024308;28;20072;-72
2021/01/13 07:06:09;;;;;;;11.40;1.13;;;;;;;1.40;53.52;100915.75;5018555;28;20124;-70
2021/01/13 07:08:35;;;;;;;12.88;0.85;;;;;;;1.72;52.53;100920.00;5026818;28;20557;-72
2021/01/13 07:11:05;;;;;;;14.88;0.63;;;;;;;1.89;51.69;100928.53;5023637;28;20084;-73
2021/01/13 07:13:38;;;;;;;12.60;1.52;;;;;;;1.41;52.90;100935.50;5023971;28;20080;-71
2021/01/13 07:16:05;;;;;;;12.77;0.82;;;;;;;1.66;52.42;100959.53;5022511;28;20037;-71
2021/01/13 07:18:35;;;;;;;4.88;0.60;;;;;;;1.18;53.17;100950.94;5020047;28;20040;-70
2021/01/13 07:21:09;;;;;;;7.13;0.90;;;;;;;1.46;52.99;100946.69;5021828;28;20025;-71
2021/01/13 07:23:46;;;;;;;8.43;1.20;;;;;;;1.77;52.14;100920.84;5035359;28;20021;-72
2021/01/13 07:26:13;;;;;;;2.65;0.20;;;;;;;1.86;51.57;100932.84;5029125;28;20124;-70
2021/01/13 07:28:39;;;;;;;1.70;0.52;;;;;;;1.76;50.89;100923.44;5025138;28;20470;-70
2021/01/13 07:31:07;;;;;;;4.38;0.85;;;;;;;1.44;50.99;100925.22;5025810;28;20048;-70
2021/01/13 07:33:35;;;;;;;0.57;0.00;;;;;;;1.45;51.07;100915.75;5020034;28;20037;-70
2021/01/13 07:36:01;;;;;;;3.42;0.20;;;;;;;1.59;50.41;100919.16;5021822;28;20044;-70
2021/01/13 07:38:31;;;;;;;1.33;0.15;;;;;;;1.88;50.31;100923.38;5022763;28;20479;-71
2021/01/13 07:40:58;;;;;;;2.42;0.75;;;;;;;1.29;51.91;100920.88;5022707;28;20080;-70
2021/01/13 07:43:46;;;;;;;4.07;0.25;;;;;;;1.69;51.43;100930.31;5004673;28;20040;-70
2021/01/13 07:46:23;;;;;;;1.95;0.10;;;;;;;1.29;52.75;100927.75;5017546;28;20113;-69
2021/01/13 07:49:13;;;;;;;6.93;0.43;;;;;;;1.74;51.71;100936.31;5035150;28;20037;-70
2021/01/13 07:51:48;;;;;;;7.70;1.00;;;;;;;1.19;53.72;100915.75;5023812;28;20037;-70
2021/01/13 07:54:27;;;;;;;17.00;2.03;;;;;;;1.44;53.23;100921.75;5028736;28;20041;-70
2021/01/13 07:56:55;;;;;;;12.68;1.00;;;;;;;1.75;52.88;100930.28;5032711;28;20034;-70
2021/01/13 07:59:34;;;;;;;7.10;0.60;;;;;;;1.87;52.55;100921.69;5034168;28;20041;-71
2021/01/13 08:02:41;;;;;;;11.38;0.90;;;;;;;1.47;53.36;100922.63;5037885;28;20057;-71
2021/01/13 08:05:57;;;;;;;6.55;1.05;;;;;;;1.35;53.62;100929.47;5016577;28;20045;-71
2021/01/13 08:08:24;;;;;;;9.75;0.88;;;;;;;1.74;52.03;100920.84;5052846;28;20029;-71
2021/01/13 08:10:53;;;;;;;8.18;1.40;;;;;;;1.88;51.06;100916.50;5037803;28;20369;-71
2021/01/13 08:13:18;;;;;;;7.93;0.43;;;;;;;1.79;50.78;100924.25;5028001;28;20037;-71
2021/01/13 08:16:02;;;;;;;9.85;0.90;;;;;;;1.82;50.22;100908.81;5026080;28;20046;-71
2021/01/13 08:18:45;;;;;;;3.58;0.57;;;;;;;1.59;50.26;100913.16;5023254;28;20433;-71
2021/01/13 08:21:28;;;;;;;5.90;0.20;;;;;;;2.21;48.77;100906.06;5020853;28;20034;-71
2021/01/13 08:24:13;;;;;;;14.45;1.30;;;;;;;1.80;49.71;100900.22;5028022;28;20030;-70
2021/01/13 08:26:39;;;;;;;6.93;1.55;;;;;;;2.01;49.15;100895.84;5021224;28;20029;-71
2021/01/13 08:29:06;;;;;;;6.00;0.52;;;;;;;2.91;46.94;100894.44;5018370;28;20072;-71
2021/01/13 08:31:33;;;;;;;10.95;0.75;;;;;;;3.41;46.15;100888.03;5008782;28;20030;-71
2021/01/13 08:34:04;;;;;;;6.75;0.65;;;;;;;4.17;44.03;100882.84;5016943;28;20033;-71
2021/01/13 08:36:30;;;;;;;3.33;0.43;;;;;;;4.46;43.84;100891.94;5019133;28;20044;-70
2021/01/13 08:39:03;;;;;;;2.45;0.28;;;;;;;4.53;43.54;100893.56;5018277;28;20060;-70
2021/01/13 08:41:29;;;;;;;9.25;0.52;;;;;;;4.31;43.98;100888.69;5021456;28;20033;-71
2021/01/13 08:44:05;;;;;;;6.13;0.45;;;;;;;3.93;44.81;100895.19;5010323;28;20053;-71
2021/01/13 08:46:44;;;;;;;4.18;0.80;;;;;;;4.06;45.29;100889.88;5024409;28;20033;-71
2021/01/13 08:49:19;;;;;;;8.18;0.30;;;;;;;4.02;45.67;100895.06;5012286;28;20125;-71
2021/01/13 08:52:22;;;;;;;8.38;0.60;;;;;;;3.99;45.66;100895.13;5016189;28;20038;-73
2021/01/13 08:54:49;;;;;;;5.10;0.45;;;;;;;3.37;47.25;100899.25;5008875;28;20124;-71
2021/01/13 08:57:16;;;;;;;3.15;0.47;;;;;;;3.11;48.07;100892.59;5020456;28;20073;-71
2021/01/13 08:59:47;;;;;;;11.45;0.80;;;;;;;3.50;47.94;100895.69;5023476;28;20034;-72
2021/01/13 09:02:16;;;;;;;15.95;1.63;;;;;;;3.95;46.88;100892.59;5020446;28;20033;-71
2021/01/13 09:04:46;;;;;;;13.48;1.17;;;;;;;3.96;46.90;100900.34;5024742;28;20116;-71
2021/01/13 09:07:18;;;;;;;12.13;0.90;;;;;;;4.49;45.91;100891.88;5013563;28;20034;-71
2021/01/13 09:09:53;;;;;;;;;;;;;;;4.03;46.55;100906.31;5008593;28;20044;-71
2021/01/13 09:12:44;;;;;;;8.18;0.63;;;;;;;3.80;46.03;100888.44;5041222;28;19917;-71
2021/01/13 09:15:18;;;;;;;3.72;0.40;;;;;;;3.75;46.16;100895.41;5036754;28;20053;-71
2021/01/13 09:17:46;;;;;;;6.80;0.22;;;;;;;3.34;46.48;100899.28;5031815;28;20037;-71
2021/01/13 09:20:12;;;;;;;9.65;0.70;;;;;;;2.77;47.86;100892.81;5024176;28;20041;-71
2021/01/13 09:22:42;;;;;;;10.90;0.30;;;;;;;3.22;47.08;100902.78;5018717;28;20029;-71
2021/01/13 09:25:20;;;;;;;13.90;0.45;;;;;;;3.01;47.71;100895.25;5013547;28;20029;-71
2021/01/13 09:27:48;;;;;;;4.03;0.90;;;;;;;3.51;46.79;100884.47;5019005;28;20053;-71
2021/01/13 09:30:38;;;;;;;3.15;0.63;;;;;;;3.21;46.90;100882.16;5025831;28;20037;-71
2021/01/13 09:33:15;;;;;;;3.00;0.38;;;;;;;3.76;45.66;100876.44;5026535;28;20048;-71
2021/01/13 09:35:49;;;;;;;7.22;0.28;;;;;;;3.55;46.41;100880.97;5018697;28;20134;-70
2021/01/13 09:38:26;;;;;;;5.65;0.20;;;;;;;3.43;47.12;100873.38;5035060;28;20208;-70
2021/01/13 09:40:51;;;;;;;6.88;0.25;;;;;;;3.24;47.56;100871.78;5015603;28;20394;-70
2021/01/13 09:43:36;;;;;;;4.85;0.60;;;;;;;3.63;46.85;100869.69;5019389;28;20037;-71
2021/01/13 09:46:08;;;;;;;9.85;0.88;;;;;;;4.32;46.06;100879.16;5024446;28;20038;-73
2021/01/13 09:48:35;;;;;;;2.43;0.80;;;;;;;4.09;46.37;100874.31;5037728;28;20102;-71
2021/01/13 09:51:11;;;;;;;4.78;0.70;;;;;;;4.83;44.46;100872.38;5007641;28;20061;-72
2021/01/13 09:53:48;;;;;;;6.68;0.30;;;;;;;5.07;44.08;100867.69;5019961;28;20439;-72
2021/01/13 09:56:14;;;;;;;2.45;0.32;;;;;;;5.28;44.21;100870.78;5017023;28;20038;-72
2021/01/13 09:58:44;;;;;;;9.00;0.55;;;;;;;5.04;44.27;100871.19;5016733;28;20040;-71
2021/01/13 10:01:14;;;;;;;9.35;0.85;;;;;;;4.25;46.63;100870.63;5035696;28;20490;-71
2021/01/13 10:03:42;;;;;;;8.02;0.47;;;;;;;4.06;46.85;100869.19;5017999;28;20049;-71
2021/01/13 10:06:16;;;;;;;11.18;1.08;;;;;;;3.94;47.14;100875.34;5020115;28;20049;-73
2021/01/13 10:08:43;;;;;;;12.93;1.27;;;;;;;3.82;47.18;100876.38;5013964;28;20041;-71
2021/01/13 10:11:11;;;;;;;6.25;0.47;;;;;;;3.57;47.10;100873.22;5013401;28;20064;-72
2021/01/13 10:13:39;;;;;;;9.90;0.95;;;;;;;4.48;45.11;100862.56;5027790;28;20116;-72
2021/01/13 10:16:05;;;;;;;13.75;0.68;;;;;;;5.07;44.11;100864.25;5026997;28;20411;-72
2021/01/13 10:18:31;;;;;;;6.57;0.60;;;;;;;5.43;42.46;100862.75;5018380;28;20520;-72
2021/01/13 10:21:02;;;;;;;15.30;1.25;;;;;;;5.56;41.94;100851.25;5017173;28;20064;-72
2021/01/13 10:23:30;;;;;;;12.43;0.90;;;;;;;5.63;42.04;100852.84;5020493;28;20042;-72
2021/01/13 10:26:07;;;;;;;12.48;0.50;;;;;;;6.00;41.58;100854.69;4997729;28;20547;-72
2021/01/13 10:28:34;;;;;;;5.35;0.50;;;;;;;6.55;40.00;100844.84;5015244;28;20022;-72
2021/01/13 10:31:01;;;;;;;14.90;0.88;;;;;;;6.85;39.39;100843.25;5021718;28;20091;-72
2021/01/13 10:33:44;;;;;;;4.13;0.63;;;;;;;5.92;41.25;100834.97;5017084;28;20029;-71
2021/01/13 10:36:29;;;;;;;10.70;1.25;;;;;;;6.22;41.21;100833.47;5025500;28;20038;-71
2021/01/13 10:38:59;;;;;;;15.23;0.63;;;;;;;5.98;41.77;100837.44;5022156;28;20030;-71
2021/01/13 10:41:46;;;;;;;18.08;1.67;;;;;;;5.46;44.00;100826.41;5023006;28;20060;-72
2021/01/13 10:44:19;;;;;;;16.23;0.93;;;;;;;5.62;43.92;100829.53;5020588;28;20083;-72
2021/01/13 10:46:53;;;;;;;10.63;0.98;;;;;;;4.73;47.20;100837.16;5022849;28;20042;-71
2021/01/13 10:49:19;;;;;;;14.25;0.65;;;;;;;4.65;48.20;100844.19;5023080;28;20025;-71
2021/01/13 10:51:49;;;;;;;15.85;1.58;;;;;;;4.12;49.20;100818.25;5020241;28;20034;-72
2021/01/13 10:54:24;;;;;;;13.52;1.65;;;;;;;4.34;49.27;100818.78;5017624;28;20045;-71
2021/01/13 10:56:55;;;;;;;11.85;1.17;;;;;;;3.97;49.67;100824.47;5012605;28;20033;-72
2021/01/13 10:59:22;;;;;;;12.10;1.65;;;;;;;3.99;49.48;100814.09;5021830;28;20041;-72
2021/01/13 11:01:50;;;;;;;9.90;0.73;;;;;;;4.19;49.36;100798.31;5019803;28;20029;-72
2021/01/13 11:04:33;;;;;;;11.95;1.05;;;;;;;3.66;50.41;100789.53;5024573;28;20048;-72
2021/01/13 11:07:10;;;;;;;11.57;1.05;;;;;;;4.18;48.84;100797.44;5023646;28;20549;-71
2021/01/13 11:09:38;;;;;;;13.02;1.25;;;;;;;4.42;48.07;100783.28;5037848;28;20167;-72
2021/01/13 11:12:05;;;;;;;11.15;0.85;;;;;;;5.13;46.48;100773.47;5008115;28;20854;-72
2021/01/13 11:14:43;;;;;;;13.10;1.15;;;;;;;4.25;47.82;100776.66;5039151;28;20076;-73
2021/01/13 11:17:10;;;;;;;6.30;0.75;;;;;;;4.89;46.09;100779.97;5022735;28;20038;-72
2021/01/13 11:19:38;;;;;;;9.20;1.15;;;;;;;4.50;47.15;100783.16;5020238;28;20034;-70
2021/01/13 11:22:04;;;;;;;5.03;0.95;;;;;;;4.01;47.95;100778.75;5026695;28;20284;-73
2021/01/13 11:24:33;;;;;;;5.35;0.57;;;;;;;4.50;46.36;100762.47;5040482;28;20159;-71
2021/01/13 11:27:03;;;;;;;9.13;1.02;;;;;;;5.01;45.51;100756.41;5027795;28;20048;-72
2021/01/13 11:29:31;;;;;;;4.80;0.60;;;;;;;5.03;45.20;100763.28;5025082;28;20236;-74
2021/01/13 11:31:58;;;;;;;13.35;2.72;;;;;;;5.39;43.67;100755.69;5023345;28;20348;-74
2021/01/13 11:34:24;;;;;;;13.20;1.23;;;;;;;5.14;44.40;100755.28;5029741;28;20092;-73
2021/01/13 11:37:36;;;;;;;6.97;0.60;;;;;;;4.53;45.42;100751.19;5021184;28;20033;-73
2021/01/13 11:40:05;;;;;;;4.80;0.50;;;;;;;4.67;45.22;100762.16;5008147;28;20045;-71
2021/01/13 11:42:49;;;;;;;1.67;0.30;;;;;;;4.83;44.80;100748.09;5025788;28;20033;-72
2021/01/13 11:45:26;;;;;;;3.45;0.55;;;;;;;4.88;44.67;100752.34;5021716;28;20116;-73
2021/01/13 11:48:02;;;;;;;8.18;0.65;;;;;;;5.18;44.51;100758.69;5036761;28;20037;-71
2021/01/13 11:50:28;;;;;;;7.10;0.60;;;;;;;5.56;43.65;100744.94;5025018;28;20033;-71
2021/01/13 11:53:02;;;;;;;12.60;0.77;;;;;;;5.06;45.15;100754.59;5024522;28;20040;-72
2021/01/13 11:55:29;;;;;;;14.15;0.80;;;;;;;4.78;45.32;100749.03;5035392;28;20044;-72
2021/01/13 11:57:55;;;;;;;8.55;0.93;;;;;;;5.18;45.23;100746.59;5021972;28;20038;-72